Time;durP1;ratioP1;P1;durP2;ratioP2;P2;SDS_P1;SDS_P2;PMS_P1;PMS_P2;Temp;Humidity;BMP_temperature;BMP_pressure;BME280_temperature;BME280_humidity;BME280_pressure;Samples;Min_cycle;Max_cycle;Signal;HPM_P1;HPM_P2
2022/03/25 00:00:47;;;;;;;0.00;0.00;;;6.50;99.90;;;;;;5023574;28;20095;-69
2022/03/25 00:03:13;;;;;;;0.00;0.00;;;7.10;99.90;;;;;;5033439;28;20400;-68
2022/03/25 00:05:39;;;;;;;0.00;0.00;;;6.40;99.90;;;;;;5022150;28;20037;-62
2022/03/25 00:08:05;;;;;;;0.00;0.00;;;6.60;99.90;;;;;;5024425;28;20033;-69
2022/03/25 00:10:30;;;;;;;0.00;0.00;;;6.40;99.90;;;;;;5005857;28;20516;-69
2022/03/25 00:12:56;;;;;;;0.00;0.00;;;6.40;99.90;;;;;;5005518;28;20073;-68
2022/03/25 00:15:22;;;;;;;0.00;0.00;;;6.40;99.90;;;;;;5022011;28;20057;-67
2022/03/25 00:17:48;;;;;;;0.40;0.40;;;6.40;99.90;;;;;;5021722;28;20564;-68
2022/03/25 00:20:13;;;;;;;0.00;0.00;;;6.40;99.90;;;;;;5023373;28;20045;-67
2022/03/25 00:22:39;;;;;;;0.00;0.00;;;6.40;99.90;;;;;;5023209;28;20065;-64
2022/03/25 00:25:05;;;;;;;0.13;0.13;;;6.50;99.90;;;;;;5023441;28;20037;-63
2022/03/25 00:27:32;;;;;;;0.30;0.20;;;6.50;99.90;;;;;;5023215;28;20045;-68
2022/03/25 00:29:58;;;;;;;0.00;0.00;;;6.60;99.90;;;;;;5022843;28;20037;-68
2022/03/25 00:32:23;;;;;;;0.00;0.00;;;6.50;99.90;;;;;;5022550;28;20068;-68
2022/03/25 00:34:49;;;;;;;0.00;0.00;;;6.60;99.90;;;;;;5022602;28;20418;-68
2022/03/25 00:37:15;;;;;;;0.00;0.00;;;6.50;99.90;;;;;;5005296;28;20441;-68
2022/03/25 00:39:41;;;;;;;0.00;0.00;;;6.50;99.90;;;;;;5022895;28;20130;-67
2022/03/25 00:42:09;;;;;;;0.00;0.00;;;6.40;99.90;;;;;;5023250;28;20061;-67
2022/03/25 00:44:35;;;;;;;0.00;0.00;;;6.40;99.90;;;;;;5022239;28;20452;-68
2022/03/25 00:47:02;;;;;;;0.00;0.00;;;6.30;99.90;;;;;;5022984;28;20037;-67
2022/03/25 00:49:27;;;;;;;0.00;0.00;;;6.20;99.90;;;;;;5023145;28;20547;-67
2022/03/25 00:51:54;;;;;;;0.00;0.00;;;6.20;99.90;;;;;;5022627;28;20053;-67
2022/03/25 00:54:20;;;;;;;0.00;0.00;;;6.20;99.90;;;;;;5022566;28;20076;-67
2022/03/25 00:56:45;;;;;;;0.00;0.00;;;6.20;99.90;;;;;;5022127;28;20476;-68
2022/03/25 00:59:11;;;;;;;0.00;0.00;;;6.10;99.90;;;;;;5023006;28;20119;-68
2022/03/25 01:01:38;;;;;;;0.00;0.00;;;6.10;99.90;;;;;;5025104;28;20500;-68
2022/03/25 01:04:04;;;;;;;0.00;0.00;;;6.10;99.90;;;;;;5012163;28;20092;-67
2022/03/25 01:06:30;;;;;;;0.00;0.00;;;6.20;99.90;;;;;;5022966;28;20100;-67
2022/03/25 01:08:55;;;;;;;0.38;0.38;;;6.10;99.90;;;;;;5022260;28;20045;-68
2022/03/25 01:11:21;;;;;;;0.00;0.00;;;6.10;99.90;;;;;;5022067;28;20045;-68
2022/03/25 01:13:47;;;;;;;0.00;0.00;;;6.10;99.90;;;;;;5022040;28;20049;-68
2022/03/25 01:16:13;;;;;;;0.00;0.00;;;6.10;99.90;;;;;;5022363;28;20419;-67
2022/03/25 01:18:39;;;;;;;0.00;0.00;;;6.10;99.90;;;;;;5003625;28;20100;-67
2022/03/25 01:21:04;;;;;;;0.00;0.00;;;6.10;99.90;;;;;;5022512;28;20047;-67
2022/03/25 01:23:30;;;;;;;0.00;0.00;;;6.00;99.90;;;;;;5022888;28;20586;-67
2022/03/25 01:25:56;;;;;;;0.00;0.00;;;6.00;99.90;;;;;;5022063;28;20067;-67
2022/03/25 01:28:23;;;;;;;0.00;0.00;;;5.90;99.90;;;;;;5004117;28;20102;-67
2022/03/25 01:30:49;;;;;;;0.00;0.00;;;5.90;99.90;;;;;;5022177;28;20046;-68
2022/03/25 01:33:15;;;;;;;0.00;0.00;;;5.90;99.90;;;;;;5021709;28;20044;-67
2022/03/25 01:35:41;;;;;;;0.00;0.00;;;5.80;99.90;;;;;;5022104;28;20472;-68
2022/03/25 01:38:07;;;;;;;0.00;0.00;;;5.80;99.90;;;;;;5021923;28;20045;-68
2022/03/25 01:40:33;;;;;;;0.00;0.00;;;5.70;99.90;;;;;;5022624;28;20048;-67
2022/03/25 01:42:59;;;;;;;0.00;0.00;;;5.70;99.90;;;;;;5021878;28;20045;-67
2022/03/25 01:45:34;;;;;;;0.00;0.00;;;5.70;99.90;;;;;;5021739;28;20412;-67
2022/03/25 01:48:11;;;;;;;0.00;0.00;;;6.60;99.90;;;;;;5021488;28;20046;-67
2022/03/25 01:50:39;;;;;;;0.00;0.00;;;5.70;99.90;;;;;;5021960;28;20064;-68
2022/03/25 01:53:28;;;;;;;0.00;0.00;;;5.60;99.90;;;;;;5021773;28;20050;-67
2022/03/25 01:56:00;;;;;;;0.00;0.00;;;5.70;99.90;;;;;;5021676;28;20747;-68
2022/03/25 01:58:28;;;;;;;0.00;0.00;;;5.50;99.90;;;;;;5021522;28;20042;-67
2022/03/25 02:00:54;;;;;;;0.00;0.00;;;5.50;99.90;;;;;;5023091;28;20048;-67
2022/03/25 02:03:21;;;;;;;0.00;0.00;;;5.50;99.90;;;;;;5030328;28;20041;-68
2022/03/25 02:05:48;;;;;;;0.10;0.10;;;5.60;99.90;;;;;;5020884;28;20133;-67
2022/03/25 02:08:15;;;;;;;0.00;0.00;;;5.40;99.90;;;;;;5021959;28;20038;-67
2022/03/25 02:10:42;;;;;;;0.00;0.00;;;5.40;99.90;;;;;;5025213;28;20199;-67
2022/03/25 02:13:09;;;;;;;0.00;0.00;;;5.40;99.90;;;;;;5025430;28;20037;-67
2022/03/25 02:15:43;;;;;;;0.00;0.00;;;5.40;99.90;;;;;;5024557;28;20056;-62
2022/03/25 02:18:10;;;;;;;0.00;0.00;;;5.40;99.90;;;;;;5024070;28;20086;-68
2022/03/25 02:20:37;;;;;;;0.00;0.00;;;5.30;99.90;;;;;;5041925;28;20041;-67
2022/03/25 02:23:04;;;;;;;0.00;0.00;;;5.30;99.90;;;;;;5045815;28;20049;-67
2022/03/25 02:25:30;;;;;;;0.00;0.00;;;5.30;99.90;;;;;;5028157;28;20500;-67
2022/03/25 02:27:58;;;;;;;0.00;0.00;;;5.20;99.90;;;;;;5045433;28;20056;-68
2022/03/25 02:30:25;;;;;;;0.00;0.00;;;5.20;99.90;;;;;;5045065;28;20171;-67
2022/03/25 02:32:52;;;;;;;0.00;0.00;;;5.10;99.90;;;;;;5026828;28;20485;-67
2022/03/25 02:35:17;;;;;;;0.00;0.00;;;5.10;99.90;;;;;;5045640;28;20045;-67
2022/03/25 02:37:43;;;;;;;0.00;0.00;;;5.00;99.90;;;;;;5044194;28;20492;-63
2022/03/25 02:40:09;;;;;;;0.00;0.00;;;5.00;99.90;;;;;;5027468;28;20048;-66
2022/03/25 02:42:35;;;;;;;0.00;0.00;;;4.90;99.90;;;;;;5045215;28;20045;-67
2022/03/25 02:45:00;;;;;;;0.00;0.00;;;4.90;99.90;;;;;;5045625;28;20203;-67
2022/03/25 02:47:26;;;;;;;0.00;0.00;;;4.90;99.90;;;;;;5044093;28;20542;-68
2022/03/25 02:49:52;;;;;;;0.00;0.00;;;4.90;99.90;;;;;;5044750;28;20049;-67
2022/03/25 02:52:17;;;;;;;0.00;0.00;;;4.90;99.90;;;;;;5027190;28;20175;-67
2022/03/25 02:54:43;;;;;;;0.00;0.00;;;4.90;99.90;;;;;;5044631;28;20476;-67
2022/03/25 02:57:08;;;;;;;0.00;0.00;;;4.90;99.90;;;;;;5026659;28;20037;-68
2022/03/25 02:59:34;;;;;;;0.00;0.00;;;4.90;99.90;;;;;;5045576;28;20037;-67
2022/03/25 03:02:00;;;;;;;0.00;0.00;;;4.80;99.90;;;;;;5025654;28;20454;-68
2022/03/25 03:04:27;;;;;;;0.00;0.00;;;4.70;99.90;;;;;;5029134;28;20042;-68
2022/03/25 03:06:53;;;;;;;0.00;0.00;;;4.70;99.90;;;;;;5024603;28;20041;-66
2022/03/25 03:09:18;;;;;;;0.00;0.00;;;4.60;99.90;;;;;;5024966;28;20037;-68
2022/03/25 03:11:44;;;;;;;0.00;0.00;;;4.60;99.90;;;;;;5024659;28;20393;-68
2022/03/25 03:14:10;;;;;;;0.00;0.00;;;4.60;99.90;;;;;;5024068;28;20507;-67
2022/03/25 03:16:36;;;;;;;0.00;0.00;;;4.50;99.90;;;;;;5024178;28;20041;-66
2022/03/25 03:19:02;;;;;;;0.00;0.00;;;4.50;99.90;;;;;;5006992;28;20055;-67
2022/03/25 03:21:29;;;;;;;0.00;0.00;;;4.40;99.90;;;;;;5024303;28;20076;-67
2022/03/25 03:23:55;;;;;;;0.00;0.00;;;4.40;99.90;;;;;;5024176;28;20045;-67
2022/03/25 03:26:21;;;;;;;0.00;0.00;;;4.30;99.90;;;;;;5024509;28;20059;-67
2022/03/25 03:28:47;;;;;;;0.00;0.00;;;4.20;99.90;;;;;;5024052;28;20065;-68
2022/03/25 03:31:13;;;;;;;0.00;0.00;;;4.10;99.90;;;;;;5023857;28;20183;-68
2022/03/25 03:33:38;;;;;;;0.00;0.00;;;3.90;99.90;;;;;;5022214;28;20053;-67
2022/03/25 03:36:04;;;;;;;0.00;0.00;;;3.70;99.90;;;;;;5024359;28;20037;-67
2022/03/25 03:38:30;;;;;;;0.00;0.00;;;3.60;99.90;;;;;;5024886;28;20087;-67
2022/03/25 03:40:56;;;;;;;0.00;0.00;;;3.60;99.90;;;;;;5023424;28;20120;-67
2022/03/25 03:43:22;;;;;;;0.00;0.00;;;3.50;99.90;;;;;;5024522;28;20038;-67
2022/03/25 03:45:48;;;;;;;0.00;0.00;;;3.30;99.90;;;;;;5023748;28;20048;-67
2022/03/25 03:48:14;;;;;;;0.00;0.00;;;3.30;99.90;;;;;;5023203;28;20042;-67
2022/03/25 03:50:40;;;;;;;0.00;0.00;;;3.30;99.90;;;;;;5023565;28;20084;-67
2022/03/25 03:53:07;;;;;;;0.00;0.00;;;3.20;99.90;;;;;;5024192;28;20402;-67
2022/03/25 03:55:32;;;;;;;0.00;0.00;;;3.10;99.90;;;;;;5024427;28;20416;-68
2022/03/25 03:57:58;;;;;;;0.00;0.00;;;3.00;99.90;;;;;;5023047;28;20048;-68
2022/03/25 04:00:28;;;;;;;0.00;0.00;;;3.10;99.90;;;;;;5024160;28;20049;-67
2022/03/25 04:02:54;;;;;;;0.00;0.00;;;3.00;99.90;;;;;;5034268;28;20056;-69
2022/03/25 04:05:20;;;;;;;0.00;0.00;;;3.00;99.90;;;;;;5005464;28;20128;-70
2022/03/25 04:07:48;;;;;;;0.15;0.15;;;2.90;99.90;;;;;;5023606;28;20160;-69
2022/03/25 04:10:15;;;;;;;0.00;0.00;;;3.00;99.90;;;;;;5023476;28;20084;-70
2022/03/25 04:12:41;;;;;;;0.00;0.00;;;3.00;99.90;;;;;;5023458;28;20049;-70
2022/03/25 04:15:12;;;;;;;0.00;0.00;;;2.90;99.90;;;;;;5022788;28;20433;-69
2022/03/25 04:17:42;;;;;;;0.00;0.00;;;2.80;99.90;;;;;;5022691;28;20110;-70
2022/03/25 04:20:10;;;;;;;0.00;0.00;;;2.80;99.90;;;;;;5023594;28;20041;-70
2022/03/25 04:22:36;;;;;;;0.08;0.08;;;2.70;99.90;;;;;;5022737;28;20451;-69
2022/03/25 04:25:02;;;;;;;0.00;0.00;;;3.00;99.90;;;;;;5023475;28;20041;-69
2022/03/25 04:27:27;;;;;;;0.00;0.00;;;2.70;99.90;;;;;;5023217;28;20107;-69
2022/03/25 04:29:55;;;;;;;0.00;0.00;;;2.70;99.90;;;;;;5022434;28;20069;-70
2022/03/25 04:32:20;;;;;;;0.00;0.00;;;2.60;99.90;;;;;;5004170;28;20041;-69
2022/03/25 04:34:46;;;;;;;0.00;0.00;;;2.60;99.90;;;;;;5022992;28;20060;-70
2022/03/25 04:37:12;;;;;;;0.00;0.00;;;2.80;99.90;;;;;;5023408;28;20852;-70
2022/03/25 04:39:38;;;;;;;0.00;0.00;;;2.50;99.90;;;;;;5022466;28;20041;-69
2022/03/25 04:42:03;;;;;;;0.00;0.00;;;2.50;99.90;;;;;;5023576;28;20046;-69
2022/03/25 04:44:29;;;;;;;0.00;0.00;;;2.50;99.90;;;;;;5022964;28;20045;-69
2022/03/25 04:46:56;;;;;;;0.00;0.00;;;2.40;99.90;;;;;;5021819;28;20045;-68
2022/03/25 04:49:22;;;;;;;0.00;0.00;;;2.50;99.90;;;;;;5023264;28;20045;-68
2022/03/25 04:51:48;;;;;;;0.00;0.00;;;2.50;99.90;;;;;;5021073;28;20091;-67
2022/03/25 04:54:14;;;;;;;0.00;0.00;;;2.40;99.90;;;;;;5023075;28;20440;-68
2022/03/25 04:56:40;;;;;;;0.10;0.10;;;2.40;99.90;;;;;;5004084;28;20081;-69
2022/03/25 04:59:06;;;;;;;0.00;0.00;;;2.40;99.90;;;;;;5022786;28;20131;-69
2022/03/25 05:01:31;;;;;;;0.00;0.00;;;2.40;99.90;;;;;;5024427;28;20072;-71
2022/03/25 05:03:57;;;;;;;0.00;0.00;;;2.30;99.90;;;;;;5022167;28;20052;-70
2022/03/25 05:06:23;;;;;;;0.00;0.00;;;2.40;99.90;;;;;;5022019;28;20085;-70
2022/03/25 05:08:48;;;;;;;0.00;0.00;;;2.40;99.90;;;;;;5021987;28;20052;-69
2022/03/25 05:11:14;;;;;;;0.00;0.00;;;2.40;99.90;;;;;;5022605;28;20427;-70
2022/03/25 05:13:39;;;;;;;0.00;0.00;;;2.30;99.90;;;;;;5021538;28;20526;-69
2022/03/25 05:16:05;;;;;;;0.00;0.00;;;2.40;99.90;;;;;;5022452;28;20077;-70
2022/03/25 05:18:31;;;;;;;0.00;0.00;;;2.70;99.90;;;;;;5022352;28;20037;-69
2022/03/25 05:20:56;;;;;;;0.00;0.00;;;2.30;99.90;;;;;;5022313;28;20121;-69
2022/03/25 05:23:23;;;;;;;0.00;0.00;;;2.30;99.90;;;;;;5021970;28;20046;-70
2022/03/25 05:25:48;;;;;;;0.00;0.00;;;2.20;99.90;;;;;;5021474;28;20151;-70
2022/03/25 05:28:16;;;;;;;1.02;0.60;;;2.30;99.90;;;;;;5022252;28;20684;-69
2022/03/25 05:30:42;;;;;;;0.00;0.00;;;2.30;99.90;;;;;;5020485;28;20045;-69
2022/03/25 05:33:08;;;;;;;0.00;0.00;;;2.20;99.90;;;;;;5021511;28;20365;-70
2022/03/25 05:35:34;;;;;;;0.20;0.20;;;2.20;99.90;;;;;;5022547;28;20132;-70
2022/03/25 05:38:00;;;;;;;0.00;0.00;;;2.10;99.90;;;;;;5022509;28;20084;-68
2022/03/25 05:40:26;;;;;;;0.00;0.00;;;2.20;99.90;;;;;;5003936;28;20068;-68
2022/03/25 05:42:53;;;;;;;0.00;0.00;;;1.60;99.90;;;;;;5003382;28;20132;-68
2022/03/25 05:45:19;;;;;;;0.08;0.08;;;2.20;99.90;;;;;;5021641;28;20080;-69
2022/03/25 05:47:45;;;;;;;0.10;0.10;;;2.20;99.90;;;;;;5003238;28;20508;-68
2022/03/25 05:50:11;;;;;;;0.00;0.00;;;2.20;99.90;;;;;;5003962;28;20054;-68
2022/03/25 05:52:38;;;;;;;0.00;0.00;;;2.30;99.90;;;;;;5021809;28;20080;-68
2022/03/25 05:55:05;;;;;;;0.10;0.10;;;2.30;99.90;;;;;;5022375;28;20045;-68
2022/03/25 05:57:31;;;;;;;0.00;0.00;;;2.30;99.90;;;;;;5022291;28;20399;-68
2022/03/25 05:59:58;;;;;;;0.00;0.00;;;2.30;99.90;;;;;;5021729;28;20081;-68
2022/03/25 06:02:25;;;;;;;0.00;0.00;;;2.40;99.90;;;;;;5030766;28;20033;-68
2022/03/25 06:04:51;;;;;;;0.10;0.10;;;2.50;99.90;;;;;;5022941;28;20038;-70
2022/03/25 06:07:17;;;;;;;0.00;0.00;;;2.60;99.90;;;;;;5003823;28;20088;-68
2022/03/25 06:09:43;;;;;;;0.00;0.00;;;2.70;99.90;;;;;;5020413;28;20504;-62
2022/03/25 06:12:10;;;;;;;0.00;0.00;;;2.70;99.90;;;;;;5021859;28;20049;-66
2022/03/25 06:14:36;;;;;;;0.00;0.00;;;2.60;99.90;;;;;;5020983;28;20128;-68
2022/03/25 06:17:01;;;;;;;0.00;0.00;;;2.80;99.90;;;;;;5020244;28;20543;-68
2022/03/25 06:19:29;;;;;;;0.00;0.00;;;2.90;99.90;;;;;;5021862;28;20034;-68
2022/03/25 06:21:56;;;;;;;0.00;0.00;;;3.10;99.90;;;;;;5020337;28;20368;-68
2022/03/25 06:24:22;;;;;;;0.10;0.10;;;3.20;99.90;;;;;;5021101;28;20045;-69
2022/03/25 06:26:48;;;;;;;0.00;0.00;;;3.30;99.90;;;;;;5021398;28;20431;-68
2022/03/25 06:29:13;;;;;;;0.00;0.00;;;3.30;99.90;;;;;;5021529;28;20049;-69
2022/03/25 06:31:39;;;;;;;0.00;0.00;;;3.50;99.90;;;;;;5020180;28;20045;-68
2022/03/25 06:34:05;;;;;;;0.10;0.10;;;3.50;99.90;;;;;;5021541;28;20087;-68
2022/03/25 06:36:31;;;;;;;0.00;0.00;;;3.70;99.90;;;;;;5021776;28;20045;-68
2022/03/25 06:38:57;;;;;;;0.00;0.00;;;3.80;99.90;;;;;;5021178;28;20038;-68
2022/03/25 06:41:23;;;;;;;0.00;0.00;;;4.00;99.90;;;;;;5003595;28;20043;-68
2022/03/25 06:43:49;;;;;;;0.20;0.20;;;4.10;99.90;;;;;;5021161;28;20125;-68
2022/03/25 06:46:17;;;;;;;0.00;0.00;;;4.20;99.90;;;;;;5020856;28;20500;-68
2022/03/25 06:48:43;;;;;;;0.00;0.00;;;4.40;99.90;;;;;;5019776;28;20054;-64
2022/03/25 06:51:09;;;;;;;0.30;0.30;;;4.40;99.90;;;;;;5003381;28;20136;-68
2022/03/25 06:53:36;;;;;;;0.00;0.00;;;4.50;99.90;;;;;;5021270;28;20040;-68
2022/03/25 06:56:02;;;;;;;0.00;0.00;;;4.60;99.90;;;;;;5024035;28;20605;-68
2022/03/25 06:58:28;;;;;;;0.00;0.00;;;4.60;99.90;;;;;;5006760;28;20183;-68
2022/03/25 07:00:54;;;;;;;0.00;0.00;;;4.70;99.90;;;;;;5026273;28;20124;-68
2022/03/25 07:03:20;;;;;;;0.00;0.00;;;4.80;99.90;;;;;;5033599;28;20038;-70
2022/03/25 07:05:46;;;;;;;0.00;0.00;;;4.90;99.90;;;;;;5023155;28;20049;-68
2022/03/25 07:08:12;;;;;;;0.00;0.00;;;5.10;99.90;;;;;;5006546;28;20049;-69
2022/03/25 07:10:38;;;;;;;0.00;0.00;;;5.30;99.90;;;;;;5024470;28;20045;-66
2022/03/25 07:13:04;;;;;;;0.08;0.08;;;5.50;99.90;;;;;;5025238;28;20404;-68
2022/03/25 07:15:30;;;;;;;0.00;0.00;;;5.70;99.90;;;;;;5024409;28;20053;-68
2022/03/25 07:17:56;;;;;;;0.00;0.00;;;5.90;99.90;;;;;;5005793;28;20041;-70
2022/03/25 07:20:25;;;;;;;0.00;0.00;;;6.10;99.90;;;;;;5006714;28;20069;-68
2022/03/25 07:22:51;;;;;;;0.00;0.00;;;7.20;99.90;;;;;;5006797;28;20439;-67
2022/03/25 07:25:18;;;;;;;0.20;0.20;;;6.40;99.90;;;;;;5024052;28;20045;-68
2022/03/25 07:27:46;;;;;;;0.00;0.00;;;6.50;99.90;;;;;;5024308;28;20520;-67
2022/03/25 07:30:13;;;;;;;0.10;0.10;;;6.60;99.90;;;;;;5024502;28;20400;-67
2022/03/25 07:32:39;;;;;;;0.00;0.00;;;6.80;99.90;;;;;;5022912;28;20422;-62
2022/03/25 07:35:06;;;;;;;0.00;0.00;;;6.90;99.90;;;;;;5024085;28;20052;-67
2022/03/25 07:37:32;;;;;;;0.00;0.00;;;7.00;99.90;;;;;;5024642;28;20052;-67
2022/03/25 07:39:57;;;;;;;0.00;0.00;;;7.10;99.90;;;;;;5023796;28;20037;-67
2022/03/25 07:42:23;;;;;;;0.00;0.00;;;7.70;99.90;;;;;;5023818;28;20049;-67
2022/03/25 07:44:49;;;;;;;0.00;0.00;;;7.30;99.90;;;;;;5023812;28;20049;-67
2022/03/25 07:47:15;;;;;;;0.00;0.00;;;7.40;99.90;;;;;;5023453;28;20084;-67
2022/03/25 07:49:42;;;;;;;0.00;0.00;;;7.40;99.90;;;;;;5023073;28;20037;-67
2022/03/25 07:52:08;;;;;;;0.00;0.00;;;7.80;99.90;;;;;;5023929;28;20048;-68
2022/03/25 07:54:35;;;;;;;0.00;0.00;;;7.60;99.90;;;;;;5024118;28;20061;-68
2022/03/25 07:57:01;;;;;;;0.00;0.00;;;7.70;99.90;;;;;;5024022;28;20125;-67
2022/03/25 07:59:28;;;;;;;0.00;0.00;;;7.80;99.90;;;;;;5023539;28;20033;-67
2022/03/25 08:01:54;;;;;;;0.00;0.00;;;7.90;99.90;;;;;;5028103;28;20126;-66
2022/03/25 08:04:24;;;;;;;0.08;0.08;;;8.00;99.90;;;;;;5029223;28;21045;-67
2022/03/25 08:06:53;;;;;;;0.00;0.00;;;8.10;99.90;;;;;;5021580;28;20555;-66
2022/03/25 08:09:19;;;;;;;0.00;0.00;;;8.20;99.90;;;;;;5023823;28;20073;-68
2022/03/25 08:11:47;;;;;;;0.00;0.00;;;8.30;99.90;;;;;;5023289;28;20911;-67
2022/03/25 08:14:14;;;;;;;0.00;0.00;;;8.40;99.90;;;;;;5023176;28;20610;-68
2022/03/25 08:16:42;;;;;;;0.00;0.00;;;9.00;99.90;;;;;;5022621;28;20155;-68
2022/03/25 08:19:07;;;;;;;0.00;0.00;;;9.60;99.90;;;;;;5023402;28;20051;-67
2022/03/25 08:21:33;;;;;;;0.00;0.00;;;8.60;99.90;;;;;;5023526;28;20042;-67
2022/03/25 08:29:28;;;;;;;0.00;0.00;;;9.00;99.90;;;;;;5023160;28;20050;-67
2022/03/25 08:31:53;;;;;;;0.00;0.00;;;9.60;99.90;;;;;;5022005;28;20053;-66
2022/03/25 08:34:19;;;;;;;0.00;0.00;;;9.30;99.90;;;;;;5023132;28;20402;-67
2022/03/25 08:36:48;;;;;;;0.10;0.10;;;9.50;99.90;;;;;;5021935;28;20125;-67
2022/03/25 08:39:14;;;;;;;0.00;0.00;;;9.60;99.90;;;;;;5029448;28;20083;-68
2022/03/25 08:41:41;;;;;;;0.00;0.00;;;9.70;99.90;;;;;;5031416;28;20037;-68
2022/03/25 08:44:07;;;;;;;0.00;0.00;;;10.20;99.90;;;;;;5042169;28;20041;-68
2022/03/25 08:46:34;;;;;;;0.00;0.00;;;10.00;99.90;;;;;;5041868;28;20040;-69
2022/03/25 08:49:00;;;;;;;0.00;0.00;;;10.10;99.90;;;;;;5043163;28;20443;-68
2022/03/25 08:51:26;;;;;;;0.00;0.00;;;10.20;99.90;;;;;;5033921;28;20036;-68
2022/03/25 08:53:53;;;;;;;0.00;0.00;;;10.30;99.90;;;;;;5039325;28;20040;-68
2022/03/25 08:56:20;;;;;;;0.00;0.00;;;10.60;99.90;;;;;;5034050;28;20049;-67
2022/03/25 08:58:46;;;;;;;0.00;0.00;;;10.60;99.90;;;;;;5041681;28;20149;-67
2022/03/25 09:01:11;;;;;;;0.00;0.00;;;10.80;99.90;;;;;;5037478;28;20124;-69
2022/03/25 09:03:38;;;;;;;0.00;0.00;;;11.00;99.90;;;;;;5033827;28;20043;-69
2022/03/25 09:06:04;;;;;;;0.17;0.10;;;11.00;99.90;;;;;;5041996;28;20079;-70
2022/03/25 09:08:30;;;;;;;0.00;0.00;;;11.20;99.90;;;;;;5042933;28;20044;-69
2022/03/25 09:10:57;;;;;;;0.00;0.00;;;11.60;99.90;;;;;;5041713;28;20420;-69
2022/03/25 09:13:22;;;;;;;0.00;0.00;;;12.40;99.90;;;;;;5041959;28;20403;-69
2022/03/25 09:15:48;;;;;;;0.00;0.00;;;13.00;99.90;;;;;;5041298;28;20049;-69
2022/03/25 09:18:14;;;;;;;0.00;0.00;;;13.40;99.90;;;;;;5042396;28;20043;-69
2022/03/25 09:20:39;;;;;;;0.38;0.32;;;13.70;99.90;;;;;;5041148;28;20135;-66
2022/03/25 09:23:06;;;;;;;0.00;0.00;;;14.00;99.90;;;;;;5042190;28;20044;-67
2022/03/25 09:25:31;;;;;;;0.00;0.00;;;14.30;99.90;;;;;;5042555;28;20048;-67
2022/03/25 09:27:57;;;;;;;0.00;0.00;;;14.70;99.90;;;;;;5041514;28;20033;-67
2022/03/25 09:30:23;;;;;;;0.00;0.00;;;15.20;99.90;;;;;;5041537;28;20492;-66
2022/03/25 09:32:49;;;;;;;0.00;0.00;;;15.80;99.90;;;;;;5023172;28;20041;-67
2022/03/25 09:35:15;;;;;;;0.00;0.00;;;16.10;99.90;;;;;;5041253;28;20049;-67
2022/03/25 09:37:46;;;;;;;0.00;0.00;;;16.20;99.90;;;;;;5021625;28;20076;-67
2022/03/25 09:40:16;;;;;;;0.00;0.00;;;16.20;99.90;;;;;;5022162;28;20038;-66
2022/03/25 09:42:42;;;;;;;0.00;0.00;;;16.20;99.90;;;;;;5021745;28;20134;-66
2022/03/25 09:45:09;;;;;;;0.00;0.00;;;16.70;99.90;;;;;;5021987;28;20216;-66
2022/03/25 09:47:35;;;;;;;0.00;0.00;;;17.00;99.90;;;;;;5020973;28;20050;-69
2022/03/25 09:50:04;;;;;;;0.00;0.00;;;17.40;99.90;;;;;;5022086;28;20037;-69
2022/03/25 09:52:31;;;;;;;0.00;0.00;;;17.40;99.90;;;;;;5021745;28;20072;-68
2022/03/25 09:54:58;;;;;;;0.15;0.08;;;17.40;99.90;;;;;;5020884;28;20076;-68
2022/03/25 09:57:27;;;;;;;0.20;0.20;;;17.70;99.90;;;;;;4987692;28;20045;-66
2022/03/25 09:59:56;;;;;;;0.00;0.00;;;17.90;99.90;;;;;;5021086;28;20463;-68
2022/03/25 10:02:21;;;;;;;0.00;0.00;;;17.90;99.90;;;;;;5011367;28;20047;-65
2022/03/25 10:04:49;;;;;;;0.03;0.03;;;17.90;99.90;;;;;;5022824;28;20197;-65
2022/03/25 10:07:17;;;;;;;0.00;0.00;;;17.90;99.90;;;;;;5021921;28;20404;-65
2022/03/25 10:09:44;;;;;;;0.00;0.00;;;17.90;99.90;;;;;;5032487;28;20045;-64
2022/03/25 10:12:25;;;;;;;0.00;0.00;;;18.00;99.90;;;;;;5041125;28;20044;-65
2022/03/25 10:14:52;;;;;;;0.00;0.00;;;18.10;99.90;;;;;;5005954;28;20053;-65
2022/03/25 10:17:19;;;;;;;0.05;0.05;;;18.20;99.90;;;;;;5022170;28;20053;-66
2022/03/25 10:19:52;;;;;;;0.00;0.00;;;18.10;99.90;;;;;;5040699;28;20041;-65
2022/03/25 10:22:19;;;;;;;0.00;0.00;;;18.20;99.90;;;;;;5022884;28;20525;-65
2022/03/25 10:24:52;;;;;;;0.03;0.03;;;18.30;99.90;;;;;;5040278;28;20545;-65
2022/03/25 10:27:28;;;;;;;0.00;0.00;;;18.30;99.90;;;;;;5023162;28;20056;-65
2022/03/25 10:29:59;;;;;;;0.00;0.00;;;18.30;99.90;;;;;;5041888;28;20076;-65
2022/03/25 10:32:26;;;;;;;0.38;0.10;;;18.40;99.90;;;;;;5043746;28;20056;-65
2022/03/25 10:35:10;;;;;;;0.00;0.00;;;18.50;99.90;;;;;;5026137;28;20098;-65
2022/03/25 10:37:38;;;;;;;0.00;0.00;;;18.70;99.90;;;;;;5044427;28;20148;-65
2022/03/25 10:40:08;;;;;;;0.00;0.00;;;18.80;99.90;;;;;;5045202;28;20047;-65
2022/03/25 10:42:34;;;;;;;0.00;0.00;;;19.00;99.90;;;;;;5027072;28;20040;-65
2022/03/25 10:45:00;;;;;;;0.00;0.00;;;19.00;99.90;;;;;;5044177;28;20068;-64
2022/03/25 10:47:28;;;;;;;0.08;0.08;;;19.10;99.90;;;;;;5044122;28;20040;-65
2022/03/25 10:49:57;;;;;;;0.00;0.00;;;19.10;99.90;;;;;;5044225;28;20563;-66
2022/03/25 10:52:30;;;;;;;0.00;0.00;;;19.20;99.90;;;;;;5044279;28;20041;-65
2022/03/25 10:55:15;;;;;;;0.00;0.00;;;19.40;99.90;;;;;;5043626;28;21433;-65
2022/03/25 10:58:00;;;;;;;0.00;0.00;;;19.40;99.90;;;;;;5025022;28;20654;-64
2022/03/25 11:00:26;;;;;;;0.00;0.00;;;19.40;99.90;;;;;;5023636;28;20069;-65
2022/03/25 11:02:53;;;;;;;0.00;0.00;;;19.50;99.90;;;;;;5035191;28;20045;-61
2022/03/25 11:05:19;;;;;;;0.00;0.00;;;19.70;99.90;;;;;;5023287;28;20073;-62
2022/03/25 11:07:47;;;;;;;0.00;0.00;;;19.50;98.30;;;;;;5023295;28;20520;-61
2022/03/25 11:10:14;;;;;;;0.10;0.10;;;19.50;99.90;;;;;;5023881;28;20049;-62
2022/03/25 11:12:45;;;;;;;0.00;0.00;;;19.70;99.90;;;;;;5025048;28;20385;-61
2022/03/25 11:15:17;;;;;;;0.00;0.00;;;19.90;99.90;;;;;;5024223;28;20064;-62
2022/03/25 11:17:43;;;;;;;0.00;0.00;;;20.00;99.90;;;;;;5023599;28;20060;-63
2022/03/25 11:20:11;;;;;;;0.00;0.00;;;20.10;97.50;;;;;;5006779;28;20056;-61
2022/03/25 11:22:43;;;;;;;0.00;0.00;;;20.10;99.20;;;;;;5023865;28;20064;-62
2022/03/25 11:25:10;;;;;;;0.00;0.00;;;20.30;99.00;;;;;;5024572;28;20045;-62
2022/03/25 11:27:39;;;;;;;0.00;0.00;;;20.40;98.40;;;;;;5023023;28;20045;-62
2022/03/25 11:30:10;;;;;;;0.00;0.00;;;20.50;96.10;;;;;;5024391;28;20089;-61
2022/03/25 11:33:00;;;;;;;0.00;0.00;;;20.50;99.20;;;;;;5023329;28;20092;-62
2022/03/25 11:35:26;;;;;;;0.00;0.00;;;20.50;96.90;;;;;;5022245;28;20132;-61
2022/03/25 11:38:13;;;;;;;0.00;0.00;;;20.70;97.20;;;;;;5023788;28;20116;-61
2022/03/25 11:40:40;;;;;;;0.00;0.00;;;20.80;96.10;;;;;;5023273;28;20075;-61
2022/03/25 11:43:12;;;;;;;0.00;0.00;;;20.60;96.80;;;;;;5024066;28;20049;-62
2022/03/25 11:45:38;;;;;;;0.00;0.00;;;20.50;96.50;;;;;;5022731;28;20045;-62
2022/03/25 11:48:04;;;;;;;0.00;0.00;;;20.50;95.30;;;;;;5023994;28;20041;-61
2022/03/25 11:50:39;;;;;;;0.00;0.00;;;20.40;97.50;;;;;;5024275;28;20061;-61
2022/03/25 11:53:10;;;;;;;0.00;0.00;;;20.50;96.00;;;;;;5024495;28;20132;-61
2022/03/25 11:55:53;;;;;;;0.00;0.00;;;20.40;96.50;;;;;;5023149;28;20471;-66
2022/03/25 11:58:19;;;;;;;0.00;0.00;;;20.20;96.00;;;;;;5023966;28;20671;-62
2022/03/25 12:00:48;;;;;;;0.00;0.00;;;20.30;97.50;;;;;;5023075;28;20484;-61
2022/03/25 12:03:16;;;;;;;0.00;0.00;;;20.20;97.50;;;;;;5033840;28;20068;-61
2022/03/25 12:05:58;;;;;;;0.00;0.00;;;20.30;98.90;;;;;;5023003;28;20068;-61
2022/03/25 12:08:25;;;;;;;0.00;0.00;;;20.30;97.60;;;;;;5023387;28;20081;-61
2022/03/25 12:10:52;;;;;;;0.05;0.05;;;20.30;98.80;;;;;;5023039;28;20037;-56
2022/03/25 12:13:19;;;;;;;0.00;0.00;;;20.40;99.40;;;;;;5023790;28;20049;-61
2022/03/25 12:15:46;;;;;;;0.00;0.00;;;20.50;99.90;;;;;;5021937;28;20089;-61
2022/03/25 12:18:46;;;;;;;0.00;0.00;;;20.20;99.80;;;;;;5005417;28;20046;-56
2022/03/25 12:21:21;;;;;;;0.00;0.00;;;20.40;99.90;;;;;;5022809;28;20096;-58
2022/03/25 12:23:59;;;;;;;;;;;20.30;99.90;;;;;;5023436;28;20049;-59
2022/03/25 12:26:29;;;;;;;0.00;0.00;;;20.20;99.90;;;;;;5022751;28;20341;-61
2022/03/25 12:28:55;;;;;;;0.00;0.00;;;20.10;99.90;;;;;;5022580;28;20048;-61
2022/03/25 12:31:21;;;;;;;0.00;0.00;;;19.90;99.60;;;;;;5022282;28;20626;-61
2022/03/25 12:33:57;;;;;;;0.00;0.00;;;19.90;99.90;;;;;;5022295;28;20036;-64
2022/03/25 12:36:31;;;;;;;0.00;0.00;;;19.70;99.90;;;;;;5023004;28;20404;-63
2022/03/25 12:38:57;;;;;;;;;;;19.60;99.90;;;;;;5021160;28;20577;-61
2022/03/25 12:41:30;;;;;;;0.00;0.00;;;19.50;99.90;;;;;;5021595;28;19921;-61
2022/03/25 12:44:01;;;;;;;0.00;0.00;;;19.40;99.90;;;;;;5020829;28;20041;-61
2022/03/25 12:46:28;;;;;;;0.00;0.00;;;19.30;99.90;;;;;;5021394;28;20049;-61
2022/03/25 12:49:07;;;;;;;0.00;0.00;;;19.30;99.70;;;;;;5021559;28;20041;-61
2022/03/25 12:51:34;;;;;;;0.00;0.00;;;19.30;99.90;;;;;;5022533;28;20058;-61
2022/03/25 12:54:00;;;;;;;0.00;0.00;;;19.30;99.90;;;;;;5021838;28;20175;-61
2022/03/25 12:56:26;;;;;;;0.00;0.00;;;19.00;99.90;;;;;;5021576;28;20057;-61
2022/03/25 12:58:57;;;;;;;0.00;0.00;;;19.00;99.90;;;;;;5020857;28;20095;-61
2022/03/25 13:01:23;;;;;;;0.00;0.00;;;19.10;99.90;;;;;;5023881;28;20068;-61